Time;durP1;ratioP1;P1;durP2;ratioP2;P2;SDS_P1;SDS_P2;PMS_P1;PMS_P2;Temp;Humidity;BMP_temperature;BMP_pressure;BME280_temperature;BME280_humidity;BME280_pressure;Samples;Min_cycle;Max_cycle;Signal;HPM_P1;HPM_P2
2023/10/09 00:03:01;;;;;;;3.67;3.27;;;20.00;69.80;;;;;;5034971;28;20471;-50
2023/10/09 00:05:39;;;;;;;3.33;2.67;;;20.00;69.90;;;;;;5038075;28;20472;-54
2023/10/09 00:08:11;;;;;;;4.50;3.50;;;20.00;69.80;;;;;;5037178;28;20439;-50
2023/10/09 00:10:52;;;;;;;3.63;3.33;;;20.00;69.90;;;;;;5036893;28;20471;-50
2023/10/09 00:13:27;;;;;;;3.80;3.13;;;20.00;69.80;;;;;;5039312;28;20557;-50
2023/10/09 00:16:00;;;;;;;4.50;3.07;;;20.00;69.80;;;;;;5034840;28;20478;-50
2023/10/09 00:18:33;;;;;;;4.17;3.30;;;20.00;69.90;;;;;;5038148;28;20522;-50
2023/10/09 00:21:12;;;;;;;5.67;3.70;;;20.00;69.90;;;;;;5035225;28;20467;-50
2023/10/09 00:23:41;;;;;;;3.90;3.53;;;20.00;69.80;;;;;;5037342;28;20927;-50
2023/10/09 00:26:10;;;;;;;4.60;4.17;;;19.90;69.80;;;;;;5039802;28;20459;-50
2023/10/09 00:28:51;;;;;;;3.23;2.90;;;20.00;69.80;;;;;;5033817;28;20444;-50
2023/10/09 00:31:30;;;;;;;4.20;3.80;;;20.00;69.90;;;;;;5035527;28;20537;-50
2023/10/09 00:34:07;;;;;;;5.77;3.80;;;20.00;69.80;;;;;;5040368;28;20463;-51
2023/10/09 00:36:49;;;;;;;4.37;3.40;;;20.00;69.80;;;;;;5031094;28;20444;-52
2023/10/09 00:39:33;;;;;;;4.03;3.10;;;19.90;69.70;;;;;;5037737;28;20500;-49
2023/10/09 00:42:03;;;;;;;7.10;3.30;;;19.90;69.80;;;;;;5036509;28;20947;-50
2023/10/09 00:44:38;;;;;;;4.73;3.80;;;20.00;69.90;;;;;;5030979;28;20475;-50
2023/10/09 00:47:20;;;;;;;5.10;3.77;;;20.00;69.90;;;;;;5033286;28;20782;-51
2023/10/09 00:49:54;;;;;;;7.83;4.10;;;19.90;69.70;;;;;;5014093;28;20551;-50
2023/10/09 00:52:37;;;;;;;5.00;2.77;;;19.90;69.70;;;;;;5026223;28;20451;-50
2023/10/09 00:55:13;;;;;;;3.93;3.13;;;19.90;69.70;;;;;;5038147;28;20459;-50
2023/10/09 00:57:50;;;;;;;5.50;3.17;;;19.90;69.90;;;;;;5030507;28;20486;-50
2023/10/09 01:00:32;;;;;;;4.03;3.57;;;19.90;69.70;;;;;;5031302;28;20486;-50
2023/10/09 01:03:19;;;;;;;5.00;3.70;;;19.90;69.80;;;;;;5017132;28;20478;-50
2023/10/09 01:05:57;;;;;;;3.97;3.50;;;19.90;69.70;;;;;;5029677;28;20748;-50
2023/10/09 01:08:28;;;;;;;5.17;3.47;;;19.90;69.80;;;;;;5027811;28;20430;-50
2023/10/09 01:10:58;;;;;;;4.90;3.50;;;19.90;69.80;;;;;;5017995;28;22087;-50
2023/10/09 01:13:38;;;;;;;4.60;3.80;;;19.90;69.90;;;;;;5026357;28;20485;-50
2023/10/09 01:16:15;;;;;;;4.10;3.70;;;19.90;69.80;;;;;;5022191;28;20600;-50
2023/10/09 01:18:44;;;;;;;3.53;2.80;;;19.90;69.90;;;;;;5017060;28;20424;-49
2023/10/09 01:21:14;;;;;;;4.13;3.40;;;19.90;69.90;;;;;;5034432;28;20472;-50
2023/10/09 01:24:02;;;;;;;4.60;2.87;;;19.90;69.90;;;;;;5030720;28;20492;-50
2023/10/09 01:26:39;;;;;;;3.57;2.97;;;19.90;70.00;;;;;;5027929;28;20970;-50
2023/10/09 01:29:10;;;;;;;5.00;4.03;;;19.90;70.00;;;;;;5022451;28;20435;-50
2023/10/09 01:31:43;;;;;;;5.53;3.50;;;19.90;69.90;;;;;;5032651;28;20543;-50
2023/10/09 01:34:14;;;;;;;5.20;3.80;;;19.90;69.90;;;;;;4994463;28;20561;-50
2023/10/09 01:36:43;;;;;;;5.43;3.77;;;19.90;70.00;;;;;;5030627;28;20444;-50
2023/10/09 01:39:23;;;;;;;4.40;3.67;;;19.90;70.00;;;;;;5033917;28;20435;-50
2023/10/09 01:41:58;;;;;;;3.87;3.30;;;19.90;70.00;;;;;;5014382;28;20948;-50
2023/10/09 01:44:30;;;;;;;3.80;3.10;;;19.90;70.00;;;;;;5029356;28;21076;-51
2023/10/09 01:46:58;;;;;;;2.70;2.30;;;19.90;70.10;;;;;;5013952;28;20443;-50
2023/10/09 01:49:32;;;;;;;4.83;3.37;;;19.90;70.00;;;;;;5043808;28;20852;-50
2023/10/09 01:52:08;;;;;;;3.63;3.20;;;19.90;70.00;;;;;;5029269;28;20454;-50
2023/10/09 01:54:40;;;;;;;4.77;3.80;;;19.90;70.00;;;;;;5044139;28;20467;-50
2023/10/09 01:57:12;;;;;;;4.23;3.33;;;19.90;70.20;;;;;;5041069;28;20419;-50
2023/10/09 01:59:44;;;;;;;4.13;3.50;;;19.90;70.10;;;;;;5041026;28;20469;-50
2023/10/09 02:02:25;;;;;;;4.20;3.60;;;19.90;70.10;;;;;;5037432;28;20442;-50
2023/10/09 02:05:03;;;;;;;3.93;2.90;;;19.90;70.10;;;;;;5047147;28;20467;-50
2023/10/09 02:07:40;;;;;;;3.90;3.30;;;19.90;70.10;;;;;;5039798;28;20460;-50
2023/10/09 02:10:21;;;;;;;3.93;3.43;;;19.80;71.20;;;;;;5047085;28;20459;-50
2023/10/09 02:12:57;;;;;;;7.30;4.10;;;19.90;70.10;;;;;;5045642;28;20425;-50
2023/10/09 02:18:39;;;;;;;3.63;3.30;;;19.90;70.10;;;;;;5081601;27;20577;-51
2023/10/09 02:21:15;;;;;;;4.30;3.37;;;19.90;70.20;;;;;;5039383;28;20494;-49
2023/10/09 02:23:49;;;;;;;4.00;3.63;;;19.90;70.20;;;;;;5032626;28;20441;-49
2023/10/09 02:26:25;;;;;;;3.73;3.17;;;19.80;70.10;;;;;;5037772;28;20466;-50
2023/10/09 02:28:59;;;;;;;4.50;3.63;;;19.80;70.20;;;;;;5036016;28;20457;-51
2023/10/09 02:31:35;;;;;;;4.23;3.30;;;19.80;70.20;;;;;;5038048;28;20841;-51
2023/10/09 02:34:07;;;;;;;4.97;3.53;;;19.90;70.30;;;;;;5034810;28;20447;-51
2023/10/09 02:36:38;;;;;;;4.67;3.90;;;19.90;70.30;;;;;;5039016;28;20840;-50
2023/10/09 02:39:07;;;;;;;4.50;3.20;;;19.90;70.40;;;;;;5032543;28;20499;-51
2023/10/09 02:41:49;;;;;;;4.70;3.33;;;19.80;70.10;;;;;;5040770;28;20554;-49
2023/10/09 02:44:24;;;;;;;5.33;3.83;;;19.90;70.20;;;;;;5024744;28;20992;-51
2023/10/09 02:46:57;;;;;;;4.63;3.50;;;19.80;70.10;;;;;;5027704;28;20423;-51
2023/10/09 02:49:28;;;;;;;4.10;3.03;;;19.80;70.20;;;;;;5032527;28;20838;-51
2023/10/09 02:51:56;;;;;;;5.13;3.80;;;19.80;70.20;;;;;;5039386;28;20570;-51
2023/10/09 02:54:36;;;;;;;5.10;3.57;;;19.80;70.20;;;;;;5040946;28;21038;-52
2023/10/09 02:57:07;;;;;;;3.83;2.90;;;19.80;70.30;;;;;;5035914;28;20468;-51
2023/10/09 02:59:38;;;;;;;5.50;3.30;;;19.80;70.30;;;;;;5033962;28;20463;-52
2023/10/09 03:02:07;;;;;;;3.30;3.00;;;19.80;70.20;;;;;;5033311;28;20455;-51
2023/10/09 03:04:38;;;;;;;4.20;3.73;;;19.80;70.30;;;;;;5038491;28;20463;-51
2023/10/09 03:07:07;;;;;;;5.90;3.87;;;19.80;70.30;;;;;;5037937;28;20869;-51
2023/10/09 03:09:35;;;;;;;4.07;3.23;;;19.80;70.30;;;;;;5038403;28;20459;-51
2023/10/09 03:12:06;;;;;;;4.07;3.43;;;19.80;70.20;;;;;;5032842;28;20482;-51
2023/10/09 03:14:38;;;;;;;4.10;2.90;;;19.80;70.30;;;;;;5030948;28;20566;-51
2023/10/09 03:17:11;;;;;;;3.43;3.13;;;19.80;70.30;;;;;;5038046;28;20473;-51
2023/10/09 03:19:43;;;;;;;4.60;3.80;;;19.80;70.30;;;;;;5031974;28;20471;-51
2023/10/09 03:22:12;;;;;;;4.57;3.60;;;19.80;70.30;;;;;;5037831;28;20455;-50
2023/10/09 03:24:43;;;;;;;4.83;3.20;;;19.80;70.20;;;;;;5027469;28;20477;-51
2023/10/09 03:27:15;;;;;;;5.10;3.63;;;19.80;70.30;;;;;;5041115;28;20456;-52
2023/10/09 03:29:49;;;;;;;4.03;3.60;;;19.80;71.50;;;;;;5028072;28;20469;-51
2023/10/09 03:32:19;;;;;;;4.80;4.30;;;19.80;70.30;;;;;;5023564;28;20452;-52
2023/10/09 03:34:51;;;;;;;3.20;2.90;;;19.80;70.30;;;;;;5018991;28;20464;-51
2023/10/09 03:37:33;;;;;;;5.50;3.80;;;19.80;70.30;;;;;;5019001;28;20491;-51
2023/10/09 03:40:06;;;;;;;4.43;3.73;;;19.80;70.30;;;;;;5022342;28;20491;-51
2023/10/09 03:42:36;;;;;;;4.07;3.50;;;19.70;70.10;;;;;;5017083;28;20443;-51
2023/10/09 03:45:12;;;;;;;4.40;3.30;;;19.80;70.20;;;;;;5015158;28;20461;-51
2023/10/09 03:47:43;;;;;;;5.43;3.73;;;19.80;70.30;;;;;;5024159;28;20910;-51
2023/10/09 03:50:26;;;;;;;4.83;4.10;;;19.80;70.30;;;;;;5028110;28;20466;-51
2023/10/09 03:52:55;;;;;;;5.73;3.80;;;19.70;70.20;;;;;;5013306;28;20444;-51
2023/10/09 03:55:27;;;;;;;4.80;3.40;;;19.80;70.30;;;;;;5024949;28;20465;-51
2023/10/09 03:57:58;;;;;;;4.47;4.03;;;19.80;70.30;;;;;;5021220;28;20460;-51
2023/10/09 04:00:28;;;;;;;4.73;4.10;;;19.80;70.20;;;;;;5023263;28;20473;-51
2023/10/09 04:02:57;;;;;;;5.90;4.00;;;19.80;70.20;;;;;;5024669;28;21049;-51
2023/10/09 04:05:28;;;;;;;6.77;3.90;;;19.80;70.20;;;;;;5019070;28;20465;-51
2023/10/09 04:07:58;;;;;;;4.60;4.10;;;19.70;70.20;;;;;;5019314;28;20761;-51
2023/10/09 04:10:51;;;;;;;5.00;3.20;;;19.70;70.10;;;;;;5025957;28;20464;-51
2023/10/09 04:13:32;;;;;;;5.13;3.53;;;19.70;70.10;;;;;;5021809;28;20444;-50
2023/10/09 04:16:09;;;;;;;5.43;3.77;;;19.80;70.20;;;;;;5014187;28;20467;-51
2023/10/09 04:18:39;;;;;;;4.37;3.87;;;19.80;70.20;;;;;;5019226;28;20494;-53
2023/10/09 04:21:18;;;;;;;3.33;3.03;;;19.70;70.10;;;;;;5018872;28;21047;-52
2023/10/09 04:24:09;;;;;;;3.90;3.50;;;19.70;70.10;;;;;;5022738;28;20456;-51
2023/10/09 04:26:39;;;;;;;4.90;3.40;;;19.70;70.10;;;;;;5047302;28;21017;-55
2023/10/09 04:29:10;;;;;;;4.13;3.73;;;19.70;70.00;;;;;;5042089;28;20431;-51
2023/10/09 04:31:38;;;;;;;4.37;3.70;;;19.70;70.90;;;;;;5043724;28;20442;-51
2023/10/09 04:34:23;;;;;;;4.50;3.40;;;19.70;70.10;;;;;;5047688;28;20467;-51
2023/10/09 04:36:56;;;;;;;3.30;2.93;;;19.70;70.20;;;;;;5064600;28;20482;-51
2023/10/09 04:39:37;;;;;;;3.93;3.20;;;19.70;70.10;;;;;;5065736;28;20458;-51
2023/10/09 04:45:19;;;;;;;4.40;4.00;;;19.70;70.10;;;;;;5063769;28;20482;-51
2023/10/09 04:47:49;;;;;;;4.50;3.23;;;19.70;70.10;;;;;;5066458;28;20419;-51
2023/10/09 04:53:22;;;;;;;4.87;3.10;;;19.70;70.10;;;;;;5062681;28;20881;-52
2023/10/09 04:55:57;;;;;;;6.20;3.67;;;19.70;70.00;;;;;;5066111;28;20462;-51
2023/10/09 04:58:27;;;;;;;4.50;3.57;;;19.70;70.10;;;;;;5065353;28;20468;-51
2023/10/09 05:01:12;;;;;;;4.10;3.70;;;19.70;70.20;;;;;;5060540;28;20454;-51
2023/10/09 05:03:44;;;;;;;5.37;4.00;;;19.70;70.10;;;;;;5066328;28;20461;-52
2023/10/09 05:06:32;;;;;;;4.30;3.40;;;19.70;70.00;;;;;;5063350;28;20584;-51
2023/10/09 05:09:13;;;;;;;5.03;3.50;;;19.70;70.00;;;;;;5061563;28;20426;-52
2023/10/09 05:11:56;;;;;;;4.93;4.37;;;19.70;70.00;;;;;;5063964;28;20757;-52
2023/10/09 05:14:38;;;;;;;4.57;3.57;;;19.70;70.00;;;;;;5066048;28;20473;-51
2023/10/09 05:17:15;;;;;;;6.67;4.00;;;19.70;70.00;;;;;;5064613;28;20916;-51
2023/10/09 05:20:03;;;;;;;5.97;4.30;;;19.70;70.00;;;;;;5064527;28;20489;-51
2023/10/09 05:22:36;;;;;;;5.30;3.67;;;19.70;69.90;;;;;;5063918;28;20446;-51
2023/10/09 05:25:17;;;;;;;4.33;3.53;;;19.70;70.00;;;;;;5065686;28;20565;-51
2023/10/09 05:27:50;;;;;;;3.70;3.20;;;19.70;69.90;;;;;;5062799;28;20819;-52
2023/10/09 05:30:33;;;;;;;3.90;3.27;;;19.60;69.80;;;;;;5063064;28;20644;-52
2023/10/09 05:36:04;;;;;;;4.37;3.77;;;19.60;69.80;;;;;;5061938;28;20931;-50
2023/10/09 05:38:35;;;;;;;4.60;3.50;;;19.70;69.90;;;;;;5065266;28;21069;-51
2023/10/09 05:46:36;;;;;;;5.13;4.30;;;19.70;69.80;;;;;;5053058;28;20849;-51
2023/10/09 05:49:19;;;;;;;4.20;3.50;;;19.70;69.90;;;;;;5065212;28;20469;-51
2023/10/09 05:51:53;;;;;;;3.83;3.40;;;19.60;69.80;;;;;;5061632;28;20491;-52
2023/10/09 05:55:09;;;;;;;3.97;3.60;;;19.70;70.00;;;;;;5063759;28;20473;-51
2023/10/09 06:05:51;;;;;;;5.10;3.70;;;19.60;69.80;;;;;;5064340;28;20831;-52
2023/10/09 06:08:24;;;;;;;3.70;3.33;;;19.60;69.80;;;;;;5062965;28;20795;-52
2023/10/09 06:11:05;;;;;;;4.17;3.70;;;19.60;69.80;;;;;;5064576;28;20472;-51
2023/10/09 06:13:39;;;;;;;4.50;4.03;;;19.70;70.00;;;;;;5063787;28;20502;-51
2023/10/09 06:16:30;;;;;;;3.77;3.30;;;19.60;69.70;;;;;;5062457;28;20466;-52
2023/10/09 06:19:11;;;;;;;4.63;3.43;;;19.60;69.80;;;;;;5063926;28;20458;-51
2023/10/09 06:22:09;;;;;;;3.23;2.90;;;19.60;69.80;;;;;;5061921;28;20551;-51
2023/10/09 06:24:41;;;;;;;4.33;3.47;;;19.60;69.80;;;;;;5064725;28;20457;-51
2023/10/09 06:27:13;;;;;;;5.40;3.80;;;19.60;69.80;;;;;;5062352;28;20442;-51
2023/10/09 06:29:52;;;;;;;5.10;4.10;;;19.60;69.80;;;;;;5062425;28;20484;-52
2023/10/09 06:32:34;;;;;;;5.50;3.60;;;19.60;69.70;;;;;;5065204;28;20430;-51
2023/10/09 06:35:21;;;;;;;4.10;3.60;;;19.60;69.70;;;;;;5063882;28;20481;-52
2023/10/09 06:43:28;;;;;;;4.07;3.10;;;19.60;69.80;;;;;;5063388;28;20790;-52
2023/10/09 06:46:37;;;;;;;3.70;3.37;;;19.60;69.80;;;;;;5062737;28;20458;-51
2023/10/09 06:48:55;;;;;;;4.93;3.37;;;19.60;69.80;;;;;;5064467;28;20445;-51
2023/10/09 06:54:17;;;;;;;4.77;3.40;;;19.60;69.70;;;;;;5064403;28;20454;-51
2023/10/09 07:00:15;;;;;;;4.27;3.17;;;19.60;69.80;;;;;;5062003;28;20567;-51
2023/10/09 07:02:45;;;;;;;3.97;3.00;;;19.60;69.70;;;;;;5061042;28;20450;-51
2023/10/09 07:05:17;;;;;;;3.47;3.10;;;19.60;69.80;;;;;;5066776;28;20485;-51
2023/10/09 07:07:54;;;;;;;3.67;3.33;;;19.60;69.90;;;;;;5064003;28;20434;-51
2023/10/09 07:10:39;;;;;;;4.83;3.27;;;19.60;69.80;;;;;;5069720;28;20453;-51
2023/10/09 07:13:07;;;;;;;4.20;3.40;;;19.60;69.80;;;;;;5069470;28;20943;-51
2023/10/09 07:18:40;;;;;;;4.00;3.50;;;19.60;71.00;;;;;;5065532;28;20438;-51
2023/10/09 07:21:17;;;;;;;4.80;3.20;;;19.60;69.80;;;;;;5065298;28;20813;-52
2023/10/09 07:23:49;;;;;;;4.10;3.10;;;19.60;69.70;;;;;;5067835;28;20540;-51
2023/10/09 07:26:23;;;;;;;4.63;3.87;;;19.60;69.80;;;;;;5065562;28;20470;-51
2023/10/09 07:29:00;;;;;;;4.93;3.80;;;19.60;69.70;;;;;;5062203;28;20440;-51
2023/10/09 07:31:39;;;;;;;5.23;3.13;;;19.60;69.80;;;;;;5062407;28;20838;-51
2023/10/09 07:36:56;;;;;;;4.03;3.30;;;19.60;69.80;;;;;;5061681;28;20521;-50
2023/10/09 07:39:34;;;;;;;4.23;3.00;;;19.60;69.80;;;;;;5064161;28;20493;-50
2023/10/09 07:42:19;;;;;;;4.10;3.70;;;19.60;69.80;;;;;;5065933;28;20441;-49
2023/10/09 07:44:54;;;;;;;3.30;3.00;;;19.50;69.80;;;;;;5064156;28;20572;-52
2023/10/09 07:47:45;;;;;;;4.17;3.13;;;19.60;69.80;;;;;;5064259;28;20434;-51
2023/10/09 07:50:21;;;;;;;4.93;3.90;;;19.50;69.70;;;;;;5067672;28;20466;-52
2023/10/09 07:52:49;;;;;;;4.93;2.97;;;19.60;69.80;;;;;;5064991;28;20449;-50
2023/10/09 07:55:29;;;;;;;5.28;3.80;;;19.60;69.80;;;;;;5066965;28;20449;-52
2023/10/09 07:58:10;;;;;;;3.40;3.03;;;19.60;69.70;;;;;;5068145;28;20213;-52
2023/10/09 08:01:06;;;;;;;6.33;4.03;;;19.50;69.70;;;;;;5066648;28;20849;-51
2023/10/09 08:03:32;;;;;;;6.00;4.23;;;19.50;69.70;;;;;;5067881;28;20469;-51
2023/10/09 08:06:37;;;;;;;3.43;3.10;;;19.50;69.80;;;;;;5064801;28;21167;-52
2023/10/09 08:14:45;;;;;;;3.43;3.10;;;19.50;69.80;;;;;;5063302;28;20712;-49
2023/10/09 08:17:15;;;;;;;3.43;3.10;;;19.50;69.70;;;;;;5067675;28;20438;-49
2023/10/09 08:19:54;;;;;;;4.20;3.20;;;19.50;69.80;;;;;;5066573;28;20963;-49
2023/10/09 08:27:58;;;;;;;4.17;3.77;;;19.50;69.80;;;;;;5057066;28;20449;-51
2023/10/09 08:30:29;;;;;;;4.47;3.43;;;19.50;69.90;;;;;;5064580;28;20459;-50
2023/10/09 08:33:03;;;;;;;4.60;3.20;;;19.50;69.70;;;;;;5063941;28;20898;-50
2023/10/09 08:35:35;;;;;;;4.80;3.60;;;19.50;69.90;;;;;;5065121;28;20519;-50
2023/10/09 08:38:08;;;;;;;4.90;3.70;;;19.50;69.80;;;;;;5063269;28;20443;-50
2023/10/09 08:40:38;;;;;;;4.67;3.37;;;19.50;69.80;;;;;;5065057;28;20474;-50
2023/10/09 08:43:14;;;;;;;4.40;3.70;;;19.50;69.70;;;;;;5066726;28;20534;-51
2023/10/09 08:45:46;;;;;;;3.50;3.07;;;19.50;69.80;;;;;;5062680;28;20473;-52
2023/10/09 08:48:16;;;;;;;5.77;4.00;;;19.50;69.70;;;;;;5065747;28;20823;-52
2023/10/09 08:50:45;;;;;;;5.40;4.10;;;19.50;69.80;;;;;;5063426;28;20445;-51
2023/10/09 08:53:16;;;;;;;6.20;3.53;;;19.50;69.90;;;;;;5063423;28;20249;-51
2023/10/09 08:55:46;;;;;;;3.93;3.37;;;19.50;69.90;;;;;;5062374;28;20474;-52
2023/10/09 08:58:20;;;;;;;3.80;3.33;;;19.50;69.90;;;;;;5062517;28;20434;-51
2023/10/09 09:00:49;;;;;;;5.10;4.07;;;19.50;69.90;;;;;;5060808;28;20488;-51
2023/10/09 09:03:19;;;;;;;8.70;5.00;;;19.50;70.60;;;;;;5062621;28;21287;-51
2023/10/09 09:05:51;;;;;;;4.47;3.67;;;19.50;70.60;;;;;;5063587;28;20462;-51
2023/10/09 09:08:25;;;;;;;4.90;3.70;;;19.50;70.50;;;;;;5064527;28;20418;-51
2023/10/09 09:11:11;;;;;;;4.67;3.73;;;19.50;70.40;;;;;;5065846;28;20462;-51
2023/10/09 09:13:42;;;;;;;5.30;3.87;;;19.50;70.30;;;;;;5065847;28;20550;-51
2023/10/09 09:16:17;;;;;;;5.97;4.30;;;19.50;70.30;;;;;;5063067;28;20470;-51
2023/10/09 09:19:04;;;;;;;4.73;3.33;;;19.50;70.30;;;;;;5064427;28;20414;-51
2023/10/09 09:21:40;;;;;;;5.37;3.70;;;19.50;70.30;;;;;;5062948;28;20466;-51
2023/10/09 09:24:26;;;;;;;4.27;3.60;;;19.50;70.20;;;;;;5066078;28;20981;-51
2023/10/09 09:26:59;;;;;;;5.13;3.63;;;19.50;70.00;;;;;;5062711;28;20708;-51
2023/10/09 09:29:41;;;;;;;4.50;3.43;;;19.50;69.90;;;;;;5060133;28;21051;-51
2023/10/09 09:32:19;;;;;;;4.60;4.10;;;19.50;69.90;;;;;;5061242;28;20446;-51
2023/10/09 09:34:49;;;;;;;5.40;3.40;;;19.50;69.90;;;;;;5064742;28;20466;-51
2023/10/09 09:37:24;;;;;;;4.20;3.80;;;19.50;69.80;;;;;;5063421;28;20450;-51
2023/10/09 09:39:53;;;;;;;5.27;3.73;;;19.50;69.70;;;;;;5065602;28;20482;-51
2023/10/09 09:42:27;;;;;;;4.87;3.33;;;19.50;69.80;;;;;;5059419;28;20505;-52
2023/10/09 09:44:57;;;;;;;4.43;3.50;;;19.50;69.80;;;;;;5065999;28;20843;-51
2023/10/09 09:47:26;;;;;;;4.27;3.47;;;19.50;69.70;;;;;;5062502;28;20568;-51
2023/10/09 09:50:00;;;;;;;3.80;3.43;;;19.50;69.60;;;;;;5065193;28;20465;-51
2023/10/09 09:52:38;;;;;;;3.50;3.20;;;19.50;69.70;;;;;;5057979;28;20446;-51
2023/10/09 09:55:16;;;;;;;7.20;4.17;;;19.50;69.60;;;;;;5062343;28;20478;-51
2023/10/09 09:57:51;;;;;;;4.80;3.73;;;19.50;69.50;;;;;;5064023;28;20437;-51
2023/10/09 10:00:30;;;;;;;4.30;3.33;;;19.50;69.60;;;;;;5061157;28;20482;-51
2023/10/09 10:03:08;;;;;;;5.67;5.00;;;19.50;69.40;;;;;;5065726;28;20426;-51
2023/10/09 10:05:40;;;;;;;5.00;3.30;;;19.50;69.50;;;;;;5065641;28;21032;-51
2023/10/09 10:08:12;;;;;;;3.77;2.97;;;19.50;69.60;;;;;;5059702;28;20507;-50
2023/10/09 10:10:52;;;;;;;3.83;3.00;;;19.50;69.40;;;;;;5065492;28;20482;-52
2023/10/09 10:14:00;;;;;;;3.90;3.30;;;19.50;69.40;;;;;;5063892;28;20509;-52
2023/10/09 10:16:34;;;;;;;4.27;3.40;;;19.50;69.40;;;;;;5060609;28;21002;-51
2023/10/09 10:19:22;;;;;;;3.90;3.50;;;19.50;69.30;;;;;;5065305;28;20426;-50
2023/10/09 10:21:50;;;;;;;3.70;3.33;;;19.50;69.40;;;;;;5059726;28;20466;-50
2023/10/09 10:24:57;;;;;;;3.67;3.27;;;19.50;69.30;;;;;;5065552;28;20442;-50
2023/10/09 10:27:28;;;;;;;3.90;3.60;;;19.60;69.30;;;;;;5063754;28;20434;-52
2023/10/09 10:30:37;;;;;;;5.50;3.37;;;19.60;69.10;;;;;;5060306;28;20556;-52
2023/10/09 10:33:12;;;;;;;4.67;3.33;;;19.60;69.10;;;;;;5064852;28;20448;-50
2023/10/09 10:35:45;;;;;;;3.80;3.40;;;19.60;68.90;;;;;;5064948;28;20474;-50
2023/10/09 10:38:39;;;;;;;4.33;3.10;;;19.60;68.70;;;;;;5060230;28;20827;-51
2023/10/09 10:41:17;;;;;;;4.03;3.53;;;19.60;68.40;;;;;;5067462;28;20576;-51
2023/10/09 10:44:33;;;;;;;4.00;2.97;;;19.60;68.70;;;;;;5068168;28;20967;-50
2023/10/09 10:46:52;;;;;;;3.10;2.80;;;19.60;68.60;;;;;;5062370;28;20476;-50
2023/10/09 10:49:26;;;;;;;4.27;3.77;;;19.60;68.30;;;;;;5068521;28;20429;-50
2023/10/09 10:52:01;;;;;;;4.67;3.77;;;19.60;68.30;;;;;;5063629;28;20437;-51
2023/10/09 10:55:05;;;;;;;5.60;3.80;;;19.60;68.30;;;;;;5066876;28;20476;-51
2023/10/09 11:03:29;;;;;;;4.87;3.37;;;19.60;68.00;;;;;;5021044;28;20471;-52
2023/10/09 11:06:13;;;;;;;3.47;3.13;;;19.60;67.80;;;;;;5057814;28;20480;-50
2023/10/09 11:08:54;;;;;;;3.43;3.10;;;19.60;67.70;;;;;;5067990;28;20517;-52
2023/10/09 11:11:23;;;;;;;4.73;3.30;;;19.60;67.90;;;;;;5065378;28;20498;-52
2023/10/09 11:13:54;;;;;;;4.43;3.60;;;19.60;68.00;;;;;;5066629;28;20469;-51
2023/10/09 11:16:41;;;;;;;3.43;3.13;;;19.60;67.80;;;;;;5064619;28;20474;-52
2023/10/09 11:19:28;;;;;;;3.60;2.80;;;19.60;67.90;;;;;;5068129;28;20530;-52
2023/10/09 11:24:44;;;;;;;4.50;3.57;;;19.60;68.00;;;;;;5063625;28;20457;-52
2023/10/09 11:27:18;;;;;;;5.30;3.90;;;19.60;67.70;;;;;;5067450;28;20461;-52
2023/10/09 11:30:05;;;;;;;5.00;3.47;;;19.60;67.90;;;;;;5068083;28;20461;-51
2023/10/09 11:32:39;;;;;;;4.70;3.37;;;19.60;67.70;;;;;;5064748;28;20431;-51
2023/10/09 11:35:14;;;;;;;3.63;3.10;;;19.60;67.50;;;;;;5067243;28;20465;-52
2023/10/09 11:37:43;;;;;;;5.23;4.00;;;19.60;67.60;;;;;;5062159;28;20724;-51
2023/10/09 11:40:42;;;;;;;5.20;3.37;;;19.60;67.50;;;;;;5065952;28;20482;-52
2023/10/09 11:43:13;;;;;;;4.10;3.70;;;19.60;67.60;;;;;;5067267;28;20965;-51
2023/10/09 11:45:54;;;;;;;4.00;3.37;;;19.60;67.50;;;;;;5063067;28;20474;-52
2023/10/09 11:48:33;;;;;;;4.33;3.40;;;19.60;67.40;;;;;;5066219;28;20439;-52
2023/10/09 11:53:45;;;;;;;4.00;3.23;;;19.60;67.50;;;;;;5065053;28;20461;-52
2023/10/09 11:56:16;;;;;;;4.23;3.67;;;19.60;67.30;;;;;;5067812;28;20477;-51
2023/10/09 11:58:49;;;;;;;6.20;3.70;;;19.60;67.50;;;;;;5064939;28;20446;-52
2023/10/09 12:01:20;;;;;;;5.33;3.53;;;19.60;67.50;;;;;;5061108;28;20469;-51
2023/10/09 12:03:51;;;;;;;4.27;3.40;;;19.60;67.50;;;;;;5064095;28;20458;-52
2023/10/09 12:06:22;;;;;;;4.60;3.60;;;19.60;67.50;;;;;;5062100;28;20471;-52
2023/10/09 12:08:51;;;;;;;3.17;2.80;;;19.60;67.60;;;;;;5065077;28;20433;-52
2023/10/09 12:11:28;;;;;;;3.10;2.73;;;19.60;67.60;;;;;;5065107;28;20590;-52
2023/10/09 12:13:57;;;;;;;3.43;2.90;;;19.60;67.90;;;;;;5064237;28;20834;-52
2023/10/09 12:16:27;;;;;;;4.10;2.93;;;19.60;67.40;;;;;;5064070;28;20477;-52
2023/10/09 12:18:59;;;;;;;5.10;3.47;;;19.60;67.50;;;;;;5065080;28;21024;-51
2023/10/09 12:21:28;;;;;;;4.53;3.50;;;19.60;67.60;;;;;;5062066;28;20471;-51
2023/10/09 12:23:57;;;;;;;4.40;3.40;;;19.60;67.60;;;;;;5065312;28;20454;-51
2023/10/09 12:26:34;;;;;;;5.10;3.47;;;19.60;67.60;;;;;;5065509;28;20606;-52
2023/10/09 12:29:03;;;;;;;4.33;3.40;;;19.60;67.60;;;;;;5067331;28;20509;-52
2023/10/09 12:31:33;;;;;;;3.53;2.97;;;19.60;67.50;;;;;;5064671;28;20462;-49
2023/10/09 12:34:03;;;;;;;6.27;2.67;;;19.60;67.70;;;;;;5067078;28;21015;-49
2023/10/09 12:36:37;;;;;;;3.60;3.23;;;19.60;67.50;;;;;;5062377;28;20854;-52
2023/10/09 12:39:05;;;;;;;4.80;3.90;;;19.60;67.40;;;;;;5064947;28;20431;-52
2023/10/09 12:41:35;;;;;;;6.73;3.20;;;19.60;67.60;;;;;;5065647;28;20731;-52
2023/10/09 12:44:04;;;;;;;3.80;2.90;;;19.60;67.60;;;;;;5066808;28;20967;-51
2023/10/09 12:46:37;;;;;;;5.70;3.93;;;19.60;67.40;;;;;;5063022;28;20824;-51
2023/10/09 12:49:08;;;;;;;3.77;3.10;;;19.60;67.50;;;;;;5065381;28;20442;-52
2023/10/09 12:51:36;;;;;;;4.10;3.10;;;19.60;67.50;;;;;;5061956;28;20488;-52
2023/10/09 12:54:04;;;;;;;5.40;3.50;;;19.60;67.60;;;;;;5065204;28;20458;-52
2023/10/09 12:56:38;;;;;;;3.80;3.40;;;19.70;67.70;;;;;;5065511;28;20809;-52
2023/10/09 12:59:07;;;;;;;4.40;3.43;;;19.60;67.40;;;;;;5064185;28;20442;-52
2023/10/09 13:01:43;;;;;;;4.67;3.80;;;19.70;67.30;;;;;;5060936;28;20462;-51
2023/10/09 13:04:15;;;;;;;9.83;3.43;;;19.70;67.30;;;;;;5066248;28;20450;-51
2023/10/09 13:06:44;;;;;;;4.10;3.30;;;19.70;67.40;;;;;;5063726;28;20531;-51
2023/10/09 13:09:14;;;;;;;4.27;3.70;;;19.60;67.30;;;;;;5065599;28;20492;-51
2023/10/09 13:11:43;;;;;;;4.30;3.57;;;19.70;67.40;;;;;;5066641;28;20517;-51
2023/10/09 13:14:16;;;;;;;3.87;3.20;;;19.60;67.30;;;;;;5065996;28;20454;-51
2023/10/09 13:16:47;;;;;;;5.30;3.33;;;19.70;67.40;;;;;;5064526;28;20442;-51
2023/10/09 13:19:17;;;;;;;4.90;3.07;;;19.60;67.40;;;;;;5064544;28;20455;-51
2023/10/09 13:21:46;;;;;;;4.10;3.70;;;19.70;67.40;;;;;;5060924;28;20458;-51
2023/10/09 13:24:15;;;;;;;4.00;3.47;;;19.70;67.40;;;;;;5065188;28;20454;-51
2023/10/09 13:26:46;;;;;;;4.60;3.83;;;19.70;67.60;;;;;;5066367;28;20537;-51
2023/10/09 13:29:22;;;;;;;3.60;3.20;;;19.70;67.40;;;;;;5065744;28;20526;-51
2023/10/09 13:31:52;;;;;;;4.80;3.60;;;19.70;67.30;;;;;;5062795;28;20430;-51
2023/10/09 13:34:26;;;;;;;3.43;3.00;;;19.70;67.20;;;;;;5065273;28;20458;-51
2023/10/09 13:36:59;;;;;;;4.23;3.53;;;19.70;67.30;;;;;;5063723;28;20760;-51
2023/10/09 13:39:30;;;;;;;3.87;3.50;;;19.70;67.20;;;;;;5065011;28;21052;-51
2023/10/09 13:42:01;;;;;;;4.77;3.57;;;19.70;67.30;;;;;;5063779;28;20477;-51
2023/10/09 13:44:30;;;;;;;3.67;3.10;;;19.70;67.30;;;;;;5063571;28;20469;-51
2023/10/09 13:46:59;;;;;;;3.87;3.30;;;19.70;67.20;;;;;;5057797;28;20438;-50
2023/10/09 13:49:30;;;;;;;4.33;3.67;;;19.70;67.10;;;;;;5060019;28;21800;-51
2023/10/09 13:52:01;;;;;;;5.47;3.53;;;19.70;67.10;;;;;;5062213;28;20452;-51
2023/10/09 13:54:39;;;;;;;3.97;3.57;;;19.70;67.00;;;;;;5065819;28;20498;-50
2023/10/09 13:57:10;;;;;;;3.90;3.50;;;19.70;67.10;;;;;;5063190;28;20430;-51
2023/10/09 13:59:43;;;;;;;4.07;3.67;;;19.70;67.10;;;;;;5063371;28;20971;-51
2023/10/09 14:02:17;;;;;;;4.10;3.13;;;19.70;67.20;;;;;;5063740;28;20470;-51
2023/10/09 14:04:48;;;;;;;3.70;3.20;;;19.70;67.20;;;;;;5065265;28;20611;-51
2023/10/09 14:07:17;;;;;;;5.07;3.83;;;19.70;67.30;;;;;;5062525;28;20566;-51
2023/10/09 14:09:55;;;;;;;5.53;3.03;;;19.70;67.20;;;;;;5064938;28;20450;-51
2023/10/09 14:12:24;;;;;;;4.77;3.57;;;19.70;67.30;;;;;;5065645;28;20430;-51
2023/10/09 14:14:54;;;;;;;4.00;3.20;;;19.70;67.00;;;;;;5064003;28;20507;-51
2023/10/09 14:17:27;;;;;;;4.97;3.50;;;19.70;67.10;;;;;;5063182;28;20811;-52
2023/10/09 14:20:25;;;;;;;5.20;3.40;;;19.70;67.30;;;;;;5064401;28;20500;-52
2023/10/09 14:22:52;;;;;;;3.60;3.00;;;19.70;67.10;;;;;;5062366;28;20470;-52
2023/10/09 14:25:21;;;;;;;3.60;2.77;;;19.70;66.90;;;;;;5065105;28;20466;-52
2023/10/09 14:27:52;;;;;;;4.67;3.50;;;19.70;67.00;;;;;;5063800;28;20510;-51
2023/10/09 14:30:30;;;;;;;5.13;3.80;;;19.70;67.00;;;;;;5061762;28;20509;-52
2023/10/09 14:33:01;;;;;;;3.53;3.00;;;19.80;67.00;;;;;;5064742;28;20509;-50
2023/10/09 14:35:33;;;;;;;5.33;2.90;;;19.70;67.10;;;;;;5064471;28;20489;-52
2023/10/09 14:38:04;;;;;;;4.30;3.33;;;19.70;66.90;;;;;;5062328;28;20485;-51